Time;durP1;ratioP1;P1;durP2;ratioP2;P2;SDS_P1;SDS_P2;PMS_P1;PMS_P2;Temp;Humidity;BMP_temperature;BMP_pressure;BME280_temperature;BME280_humidity;BME280_pressure;Samples;Min_cycle;Max_cycle;Signal;HPM_P1;HPM_P2
2022/04/05 00:01:45;;;;;;;10.87;2.10;;;5.10;99.90;;;;;;5064170;28;20268;-44
2022/04/05 00:04:12;;;;;;;6.93;1.63;;;5.10;99.90;;;;;;5058554;28;20210;-49
2022/04/05 00:06:39;;;;;;;13.60;2.03;;;5.10;99.90;;;;;;5056078;28;20301;-46
2022/04/05 00:09:07;;;;;;;6.33;2.07;;;5.10;99.90;;;;;;5056585;28;20577;-45
2022/04/05 00:11:34;;;;;;;10.47;1.63;;;5.00;99.90;;;;;;5057813;28;20209;-44
2022/04/05 00:14:02;;;;;;;10.27;1.70;;;5.10;99.90;;;;;;5059583;28;20256;-45
2022/04/05 00:16:29;;;;;;;11.10;1.73;;;5.10;99.90;;;;;;5061975;28;20294;-47
2022/04/05 00:18:57;;;;;;;16.37;2.03;;;5.10;99.90;;;;;;5065324;28;20675;-45
2022/04/05 00:21:24;;;;;;;10.30;2.20;;;5.10;99.90;;;;;;5062029;28;20276;-45
2022/04/05 00:23:51;;;;;;;12.60;2.47;;;5.10;99.90;;;;;;5059704;28;20214;-45
2022/04/05 00:26:17;;;;;;;14.87;3.00;;;5.20;99.90;;;;;;5047936;28;20223;-50
2022/04/05 00:28:44;;;;;;;15.97;2.50;;;5.20;99.90;;;;;;5059955;28;20655;-45
2022/04/05 00:31:12;;;;;;;15.20;2.10;;;5.20;99.90;;;;;;5062268;28;20565;-47
2022/04/05 00:33:40;;;;;;;10.63;2.47;;;5.30;99.90;;;;;;5064483;28;20277;-44
2022/04/05 00:36:07;;;;;;;11.90;2.10;;;5.30;99.90;;;;;;5062112;28;20206;-49
2022/04/05 00:38:34;;;;;;;12.67;2.37;;;5.30;99.90;;;;;;5057005;28;20206;-44
2022/04/05 00:41:01;;;;;;;17.20;2.83;;;5.40;99.90;;;;;;5061586;28;20210;-47
2022/04/05 00:43:28;;;;;;;13.00;2.30;;;5.30;99.90;;;;;;5055597;28;20425;-46
2022/04/05 00:45:55;;;;;;;11.60;1.97;;;5.30;99.90;;;;;;5058903;28;20691;-46
2022/04/05 00:48:29;;;;;;;13.80;2.17;;;5.30;99.90;;;;;;5060909;28;20187;-47
2022/04/05 00:50:57;;;;;;;15.67;2.43;;;5.30;99.90;;;;;;5065022;28;20547;-49
2022/04/05 00:53:25;;;;;;;10.43;2.57;;;5.30;99.90;;;;;;5061128;28;20199;-44
2022/04/05 00:55:53;;;;;;;15.27;2.43;;;5.30;99.90;;;;;;5057897;28;20619;-45
2022/04/05 00:58:23;;;;;;;12.23;1.90;;;5.30;99.90;;;;;;5047290;28;20206;-46
2022/04/05 01:00:50;;;;;;;16.53;2.60;;;5.30;99.90;;;;;;5056628;28;20710;-45
2022/04/05 01:03:18;;;;;;;10.30;1.87;;;5.30;99.90;;;;;;5060627;28;20209;-48
2022/04/05 01:05:47;;;;;;;13.23;2.40;;;5.30;99.90;;;;;;5053285;28;20206;-49
2022/04/05 01:08:18;;;;;;;12.20;1.97;;;5.30;99.90;;;;;;5060871;28;20695;-49
2022/04/05 01:10:46;;;;;;;12.70;2.40;;;5.30;99.90;;;;;;5054122;28;20266;-49
2022/04/05 01:13:12;;;;;;;14.40;2.73;;;5.30;99.90;;;;;;5050819;28;20658;-44
2022/04/05 01:15:40;;;;;;;10.83;2.07;;;5.30;99.90;;;;;;5056321;28;20287;-49
2022/04/05 01:18:07;;;;;;;7.63;1.77;;;5.30;99.90;;;;;;5062076;28;20887;-44
2022/04/05 01:20:34;;;;;;;8.10;2.00;;;5.30;99.90;;;;;;5062472;28;20218;-46
2022/04/05 01:23:02;;;;;;;15.07;2.33;;;5.40;99.90;;;;;;5062719;28;20469;-46
2022/04/05 01:25:30;;;;;;;10.97;1.93;;;5.40;99.90;;;;;;5057361;28;20210;-46
2022/04/05 01:27:58;;;;;;;13.57;2.20;;;5.40;99.90;;;;;;5046235;28;20234;-44
2022/04/05 01:30:25;;;;;;;13.70;1.73;;;5.40;99.90;;;;;;5056977;28;20217;-44
2022/04/05 01:32:54;;;;;;;8.47;1.83;;;5.40;99.90;;;;;;5060156;28;20876;-46
2022/04/05 01:35:20;;;;;;;12.40;2.03;;;5.40;99.90;;;;;;5063879;28;20320;-44
2022/04/05 01:37:47;;;;;;;9.67;1.70;;;5.40;99.90;;;;;;5059161;28;20203;-45
2022/04/05 01:40:14;;;;;;;11.47;1.90;;;5.40;99.90;;;;;;5057861;28;20211;-46
2022/04/05 01:42:42;;;;;;;5.13;1.60;;;5.40;99.90;;;;;;5060356;28;20198;-48
2022/04/05 01:45:09;;;;;;;10.50;1.97;;;5.40;99.90;;;;;;5049461;28;20202;-45
2022/04/05 01:47:38;;;;;;;15.33;1.60;;;5.40;99.90;;;;;;5055148;28;20586;-45
2022/04/05 01:50:06;;;;;;;4.37;1.33;;;5.40;99.90;;;;;;5063007;28;20198;-46
2022/04/05 01:52:33;;;;;;;13.13;1.77;;;5.40;99.90;;;;;;5061990;28;20201;-51
2022/04/05 01:55:00;;;;;;;9.47;1.43;;;5.40;99.90;;;;;;5061742;28;20187;-46
2022/04/05 01:57:27;;;;;;;6.73;1.40;;;5.40;99.90;;;;;;5056673;28;20280;-45
2022/04/05 01:59:55;;;;;;;9.00;1.40;;;5.40;99.90;;;;;;5047395;28;20194;-44
2022/04/05 02:02:22;;;;;;;10.90;1.27;;;5.40;99.90;;;;;;5058051;28;20217;-44
2022/04/05 02:04:50;;;;;;;9.33;1.30;;;5.40;99.90;;;;;;5059127;28;20195;-48
2022/04/05 02:07:20;;;;;;;7.33;1.33;;;5.40;99.90;;;;;;5061410;28;20214;-45
2022/04/05 02:09:49;;;;;;;7.43;1.37;;;5.40;99.90;;;;;;5058417;28;20818;-46
2022/04/05 02:12:17;;;;;;;11.20;1.17;;;5.40;99.90;;;;;;5057166;28;20207;-45
2022/04/05 02:14:57;;;;;;;18.30;2.40;;;5.40;99.90;;;;;;5043287;28;20203;-44
2022/04/05 02:17:35;;;;;;;6.03;1.30;;;5.30;99.90;;;;;;5054070;28;20285;-49
2022/04/05 02:20:08;;;;;;;6.03;1.20;;;5.30;99.90;;;;;;5059490;28;20230;-44
2022/04/05 02:22:36;;;;;;;9.07;1.67;;;5.30;99.90;;;;;;5059512;28;20260;-50
2022/04/05 02:25:10;;;;;;;4.23;0.80;;;5.20;99.90;;;;;;5063358;28;20199;-50
2022/04/05 02:27:41;;;;;;;8.07;1.50;;;5.20;99.90;;;;;;5052780;28;20227;-50
2022/04/05 02:30:14;;;;;;;6.90;0.97;;;5.20;99.90;;;;;;5046103;28;20206;-46
2022/04/05 02:32:43;;;;;;;6.87;1.20;;;5.10;99.90;;;;;;5057472;28;20223;-49
2022/04/05 02:35:11;;;;;;;8.03;1.20;;;5.00;99.90;;;;;;5057474;28;20218;-47
2022/04/05 02:37:39;;;;;;;6.83;1.50;;;5.00;99.90;;;;;;5073563;28;20250;-48
2022/04/05 02:40:09;;;;;;;7.50;1.27;;;5.00;99.90;;;;;;5061346;28;20268;-46
2022/04/05 02:42:36;;;;;;;7.47;1.10;;;4.90;99.90;;;;;;5055913;28;20210;-49
2022/04/05 02:45:05;;;;;;;5.53;1.10;;;4.90;99.90;;;;;;5046961;28;21167;-45
2022/04/05 02:47:34;;;;;;;12.00;1.40;;;4.80;99.90;;;;;;5060768;28;20226;-50
2022/04/05 02:50:02;;;;;;;7.40;1.20;;;4.80;99.90;;;;;;5054566;28;20194;-48
2022/04/05 02:52:30;;;;;;;5.83;0.77;;;4.80;99.90;;;;;;5060884;28;20573;-50
2022/04/05 02:55:01;;;;;;;9.43;1.10;;;4.80;99.90;;;;;;5059552;28;20374;-45
2022/04/05 02:57:30;;;;;;;7.20;0.90;;;4.70;99.90;;;;;;5059596;28;20206;-52
2022/04/05 03:00:00;;;;;;;4.63;0.83;;;4.70;99.90;;;;;;5053075;28;20186;-47
2022/04/05 03:02:30;;;;;;;5.43;0.90;;;4.70;99.90;;;;;;5042924;28;20284;-50
2022/04/05 03:04:58;;;;;;;5.20;1.60;;;4.70;99.90;;;;;;5053658;28;20214;-47
2022/04/05 03:07:25;;;;;;;7.40;1.43;;;4.60;99.90;;;;;;5060323;28;20226;-49
2022/04/05 03:09:53;;;;;;;5.77;1.00;;;4.60;99.90;;;;;;5058116;28;20220;-45
2022/04/05 03:12:20;;;;;;;5.90;0.90;;;4.60;99.90;;;;;;5050679;28;20190;-45
2022/04/05 03:14:50;;;;;;;6.03;0.93;;;4.60;99.90;;;;;;5054152;28;20298;-46
2022/04/05 03:17:20;;;;;;;4.83;0.77;;;4.60;99.90;;;;;;5041793;28;20210;-45
2022/04/05 03:19:47;;;;;;;4.13;0.73;;;4.50;99.90;;;;;;5060861;28;20248;-45
2022/04/05 03:22:16;;;;;;;6.33;1.10;;;4.50;99.90;;;;;;5053466;28;20206;-45
2022/04/05 03:24:44;;;;;;;7.60;1.53;;;4.50;99.90;;;;;;5061144;28;20202;-45
2022/04/05 03:27:11;;;;;;;2.37;0.70;;;4.50;99.90;;;;;;5056842;28;20219;-46
2022/04/05 03:29:38;;;;;;;3.73;0.50;;;4.50;99.90;;;;;;5054847;28;20546;-45
2022/04/05 03:32:08;;;;;;;7.33;1.40;;;4.50;99.90;;;;;;5043659;28;20221;-47
2022/04/05 03:34:36;;;;;;;6.00;1.10;;;4.40;99.90;;;;;;5060198;28;20195;-46
2022/04/05 03:37:03;;;;;;;4.60;1.60;;;4.40;99.90;;;;;;5053067;28;20266;-45
2022/04/05 03:39:31;;;;;;;10.33;1.13;;;4.40;99.90;;;;;;5060829;28;20193;-45
2022/04/05 03:41:59;;;;;;;6.23;1.13;;;4.40;99.90;;;;;;5062011;28;20295;-51
2022/04/05 03:44:26;;;;;;;11.23;1.20;;;4.40;99.90;;;;;;5057815;28;20214;-47
2022/04/05 03:46:56;;;;;;;7.50;1.90;;;4.40;99.90;;;;;;5063711;28;20215;-46
2022/04/05 03:49:23;;;;;;;11.57;2.07;;;4.30;99.90;;;;;;5037360;28;20198;-46
2022/04/05 03:51:53;;;;;;;5.63;1.33;;;4.30;99.90;;;;;;5054736;28;20198;-50
2022/04/05 03:54:21;;;;;;;6.23;1.50;;;4.30;99.90;;;;;;5057216;28;20558;-48
2022/04/05 03:56:49;;;;;;;7.73;1.60;;;4.30;99.90;;;;;;5058467;28;20278;-50
2022/04/05 03:59:19;;;;;;;8.57;1.40;;;4.30;99.90;;;;;;5064328;28;20248;-46
2022/04/05 04:01:47;;;;;;;6.70;1.63;;;4.30;99.90;;;;;;5051271;28;20702;-50
2022/04/05 04:04:14;;;;;;;3.80;1.00;;;4.30;99.90;;;;;;5049154;28;20244;-46
2022/04/05 04:06:40;;;;;;;4.43;0.90;;;4.20;99.90;;;;;;5060613;28;20305;-49
2022/04/05 04:09:11;;;;;;;7.27;1.20;;;4.20;99.90;;;;;;5059540;28;20213;-46
2022/04/05 04:11:40;;;;;;;9.00;1.53;;;4.20;99.90;;;;;;5059487;28;20204;-51
2022/04/05 04:14:09;;;;;;;7.03;2.00;;;4.20;99.90;;;;;;5062258;28;20245;-48
2022/04/05 04:16:36;;;;;;;9.47;1.30;;;4.20;99.90;;;;;;5056374;28;20218;-49
2022/04/05 04:19:03;;;;;;;5.53;1.00;;;4.10;99.90;;;;;;5049401;28;20198;-47
2022/04/05 04:21:32;;;;;;;3.87;1.37;;;4.10;99.90;;;;;;5063611;28;20289;-44
2022/04/05 04:24:00;;;;;;;5.97;1.73;;;4.10;99.90;;;;;;5055057;28;20198;-47
2022/04/05 04:26:27;;;;;;;10.80;2.13;;;4.10;99.90;;;;;;5059074;28;20305;-46
2022/04/05 04:28:58;;;;;;;7.50;1.30;;;4.10;99.90;;;;;;5054890;28;20817;-46
2022/04/05 04:31:26;;;;;;;4.20;1.00;;;4.10;99.90;;;;;;5060715;28;20675;-46
2022/04/05 04:33:53;;;;;;;7.07;1.60;;;4.00;99.90;;;;;;5039649;28;20705;-48
2022/04/05 04:36:21;;;;;;;6.77;1.10;;;4.00;99.90;;;;;;5061423;28;20218;-46
2022/04/05 04:38:48;;;;;;;7.57;1.50;;;4.00;99.90;;;;;;5057155;28;20216;-50
2022/04/05 04:41:15;;;;;;;10.83;1.40;;;4.00;99.90;;;;;;5060898;28;20232;-44
2022/04/05 04:43:42;;;;;;;11.70;1.40;;;4.00;99.90;;;;;;5057723;28;20207;-50
2022/04/05 04:46:10;;;;;;;7.70;1.57;;;4.00;99.90;;;;;;5062457;28;20468;-50
2022/04/05 04:48:38;;;;;;;8.27;1.43;;;4.00;99.90;;;;;;5058127;28;20225;-49
2022/04/05 04:51:05;;;;;;;4.43;1.17;;;4.00;99.90;;;;;;5036476;28;20223;-49
2022/04/05 04:53:32;;;;;;;6.10;1.37;;;4.00;99.90;;;;;;5053117;28;21434;-49
2022/04/05 04:55:59;;;;;;;6.53;1.33;;;4.00;99.90;;;;;;5057791;28;20218;-46
2022/04/05 04:58:25;;;;;;;7.47;1.23;;;4.00;99.90;;;;;;5055068;28;20933;-45
2022/04/05 05:00:52;;;;;;;5.87;1.50;;;4.00;99.90;;;;;;5062989;28;20210;-46
2022/04/05 05:03:19;;;;;;;12.67;1.57;;;4.00;99.90;;;;;;5058393;28;20615;-47
2022/04/05 05:05:47;;;;;;;6.77;1.10;;;4.00;99.90;;;;;;5043829;28;20199;-49
2022/04/05 05:08:14;;;;;;;5.70;1.40;;;4.00;99.90;;;;;;5065477;28;20230;-47
2022/04/05 05:10:41;;;;;;;11.53;1.47;;;4.00;99.90;;;;;;5051441;28;20656;-51
2022/04/05 05:13:09;;;;;;;10.80;1.30;;;4.10;99.90;;;;;;5049080;28;20203;-48
2022/04/05 05:15:35;;;;;;;8.30;1.40;;;4.10;99.90;;;;;;5062921;28;20734;-48
2022/04/05 05:18:02;;;;;;;11.40;1.60;;;4.20;99.90;;;;;;5058998;28;20198;-46
2022/04/05 05:20:29;;;;;;;6.30;1.50;;;4.20;99.90;;;;;;5057341;28;20209;-45
2022/04/05 05:22:57;;;;;;;10.00;1.47;;;4.20;99.90;;;;;;5051762;28;20935;-47
2022/04/05 05:25:24;;;;;;;10.53;1.83;;;4.20;99.90;;;;;;5054599;28;20257;-46
2022/04/05 05:27:51;;;;;;;5.07;1.60;;;4.20;99.90;;;;;;5055751;28;20215;-46
2022/04/05 05:30:17;;;;;;;5.13;1.20;;;4.30;99.90;;;;;;5058995;28;20216;-49
2022/04/05 05:32:46;;;;;;;4.53;1.40;;;4.30;99.90;;;;;;5058426;28;20206;-48
2022/04/05 05:35:15;;;;;;;4.27;1.13;;;4.30;99.90;;;;;;5061949;28;20726;-46
2022/04/05 05:37:42;;;;;;;4.93;1.30;;;4.30;99.90;;;;;;5045973;28;20218;-49
2022/04/05 05:40:13;;;;;;;3.77;1.33;;;4.40;99.90;;;;;;5056565;28;20753;-45
2022/04/05 05:42:48;;;;;;;5.23;1.20;;;4.40;99.90;;;;;;5059011;28;20200;-48
2022/04/05 05:45:15;;;;;;;9.37;1.23;;;4.40;99.90;;;;;;5055039;28;20653;-45
2022/04/05 05:47:42;;;;;;;5.63;0.97;;;4.40;99.90;;;;;;5056392;28;20289;-46
2022/04/05 05:50:10;;;;;;;4.87;0.93;;;4.50;99.90;;;;;;5059537;28;20198;-47
2022/04/05 05:52:36;;;;;;;4.90;1.03;;;4.50;99.90;;;;;;5049522;28;20912;-49
2022/04/05 05:55:04;;;;;;;5.50;1.23;;;4.50;99.90;;;;;;5055304;28;20320;-45
2022/04/05 05:57:33;;;;;;;7.20;1.37;;;4.50;99.90;;;;;;5062996;28;20301;-47
2022/04/05 06:00:00;;;;;;;2.73;0.90;;;4.50;99.90;;;;;;5057634;28;20198;-47
2022/04/05 06:02:26;;;;;;;6.73;1.23;;;4.60;99.90;;;;;;5064096;28;20210;-46
2022/04/05 06:04:53;;;;;;;5.63;0.97;;;4.60;99.90;;;;;;5053914;28;20870;-47
2022/04/05 06:07:20;;;;;;;2.33;1.00;;;4.60;99.90;;;;;;5062567;28;20595;-48
2022/04/05 06:09:48;;;;;;;8.67;1.10;;;4.60;99.90;;;;;;5038515;28;20289;-47
2022/04/05 06:12:14;;;;;;;7.00;1.20;;;4.70;99.90;;;;;;5062824;28;20661;-45
2022/04/05 06:14:42;;;;;;;8.67;1.00;;;4.70;99.90;;;;;;5049893;28;20203;-50
2022/04/05 06:17:09;;;;;;;7.23;1.40;;;4.80;99.90;;;;;;5059840;28;20364;-45
2022/04/05 06:19:37;;;;;;;11.73;1.87;;;4.80;99.90;;;;;;5053797;28;20643;-52
2022/04/05 06:22:04;;;;;;;5.13;1.43;;;4.90;99.90;;;;;;5053139;28;20222;-47
2022/04/05 06:24:31;;;;;;;6.07;1.37;;;4.90;99.90;;;;;;5057223;28;20203;-52
2022/04/05 06:26:58;;;;;;;4.03;0.87;;;5.00;99.90;;;;;;5042697;28;20327;-50
2022/04/05 06:29:25;;;;;;;5.90;1.30;;;5.00;99.90;;;;;;5056686;28;20296;-51
2022/04/05 06:31:53;;;;;;;8.13;1.63;;;5.10;99.90;;;;;;5057376;28;20194;-48
2022/04/05 06:34:20;;;;;;;6.13;1.33;;;5.20;99.90;;;;;;5055001;28;20206;-51
2022/04/05 06:36:46;;;;;;;4.90;1.40;;;5.20;99.90;;;;;;5051919;28;20910;-53
2022/04/05 06:39:13;;;;;;;6.40;1.10;;;5.30;99.90;;;;;;5057177;28;20217;-52
2022/04/05 06:41:40;;;;;;;7.70;1.40;;;5.30;99.90;;;;;;5045457;28;20703;-51
2022/04/05 06:44:07;;;;;;;6.07;1.60;;;5.40;99.90;;;;;;5057996;28;20199;-52
2022/04/05 06:46:34;;;;;;;4.33;1.03;;;5.40;99.90;;;;;;5063577;28;20970;-51
2022/04/05 06:49:03;;;;;;;7.63;1.30;;;5.50;99.90;;;;;;5058861;28;20518;-49
2022/04/05 06:51:30;;;;;;;10.50;1.40;;;5.50;99.90;;;;;;5057570;28;20276;-52
2022/04/05 06:53:58;;;;;;;5.83;2.03;;;5.60;99.90;;;;;;5058047;28;20197;-49
2022/04/05 06:56:26;;;;;;;8.17;1.50;;;5.60;99.90;;;;;;5056038;28;20232;-48
2022/04/05 06:58:54;;;;;;;6.03;1.87;;;5.60;99.90;;;;;;5039618;28;20196;-48
2022/04/05 07:01:21;;;;;;;6.90;1.43;;;5.70;99.90;;;;;;5056289;28;20655;-49
2022/04/05 07:03:48;;;;;;;6.63;1.23;;;5.80;99.90;;;;;;5052471;28;20201;-46
2022/04/05 07:06:16;;;;;;;5.60;1.10;;;5.80;99.90;;;;;;5056410;28;20287;-46
2022/04/05 07:08:47;;;;;;;9.70;1.83;;;5.90;99.90;;;;;;5053297;28;20233;-47
2022/04/05 07:11:13;;;;;;;5.33;1.33;;;5.90;99.90;;;;;;5057084;28;20206;-47
2022/04/05 07:13:40;;;;;;;6.93;1.23;;;6.00;99.90;;;;;;5045690;28;20214;-46
2022/04/05 07:16:07;;;;;;;6.50;1.10;;;6.00;99.90;;;;;;5059611;28;20252;-46
2022/04/05 07:18:34;;;;;;;3.77;1.00;;;6.00;99.90;;;;;;5065289;28;20652;-48
2022/04/05 07:21:03;;;;;;;7.13;0.90;;;6.00;99.90;;;;;;5056135;28;20202;-48
2022/04/05 07:23:31;;;;;;;5.73;0.80;;;6.10;99.90;;;;;;5061690;28;20566;-48
2022/04/05 07:25:57;;;;;;;5.23;1.17;;;6.10;99.90;;;;;;5056903;28;20199;-48
2022/04/05 07:28:24;;;;;;;3.27;1.30;;;6.20;99.90;;;;;;5053656;28;20218;-47
2022/04/05 07:30:51;;;;;;;6.03;1.40;;;6.30;99.90;;;;;;5045356;28;20703;-46
2022/04/05 07:33:18;;;;;;;6.47;1.13;;;6.50;99.90;;;;;;5058208;28;20183;-49
2022/04/05 07:35:45;;;;;;;5.80;1.20;;;6.50;99.90;;;;;;5060286;28;20197;-49
2022/04/05 07:38:12;;;;;;;4.93;1.00;;;6.50;99.90;;;;;;5055552;28;20572;-45
2022/04/05 07:40:50;;;;;;;7.27;0.80;;;6.50;99.90;;;;;;5058567;28;20194;-45
2022/04/05 07:43:17;;;;;;;3.33;1.03;;;6.50;99.90;;;;;;5045198;28;20213;-47
2022/04/05 07:45:45;;;;;;;4.37;1.50;;;6.40;99.90;;;;;;5063317;28;20195;-44
2022/04/05 07:48:12;;;;;;;5.77;1.67;;;6.40;99.90;;;;;;5060360;28;20211;-47
2022/04/05 07:50:38;;;;;;;3.20;0.93;;;6.50;99.90;;;;;;5065604;28;20226;-43
2022/04/05 07:53:05;;;;;;;7.63;1.03;;;6.50;99.90;;;;;;5056912;28;20198;-49
2022/04/05 07:55:32;;;;;;;4.27;0.87;;;6.70;99.90;;;;;;5058907;28;20198;-43
2022/04/05 07:58:00;;;;;;;7.27;1.10;;;6.80;99.90;;;;;;5063905;28;20293;-45
2022/04/05 08:00:28;;;;;;;4.33;0.90;;;6.80;99.90;;;;;;5044680;28;20210;-45
2022/04/05 08:02:55;;;;;;;4.60;0.70;;;6.90;99.90;;;;;;5064264;28;20206;-47
2022/04/05 08:05:23;;;;;;;5.33;1.10;;;7.00;99.90;;;;;;5060556;28;20187;-47
2022/04/05 08:07:51;;;;;;;8.70;1.23;;;7.00;99.90;;;;;;5057088;28;20329;-49
2022/04/05 08:10:18;;;;;;;3.87;0.90;;;7.00;99.90;;;;;;5061214;28;20771;-48
2022/04/05 08:12:49;;;;;;;4.90;0.67;;;6.90;99.90;;;;;;5058604;28;20245;-46
2022/04/05 08:15:19;;;;;;;2.43;0.80;;;6.90;99.90;;;;;;5051446;28;20203;-45
2022/04/05 08:17:46;;;;;;;6.60;1.10;;;6.90;99.90;;;;;;5063282;28;20722;-44
2022/04/05 08:20:14;;;;;;;6.97;1.30;;;7.00;99.90;;;;;;5056718;28;20845;-45
2022/04/05 08:22:42;;;;;;;8.67;1.30;;;6.90;99.90;;;;;;5060797;28;20209;-46
2022/04/05 08:25:11;;;;;;;8.40;1.03;;;6.80;99.90;;;;;;5060751;28;20195;-44
2022/04/05 08:27:39;;;;;;;6.03;1.37;;;6.80;99.90;;;;;;5057789;28;20249;-48
2022/04/05 08:30:08;;;;;;;9.53;1.73;;;6.80;99.90;;;;;;5061104;28;20953;-42
2022/04/05 08:32:38;;;;;;;4.87;0.93;;;6.80;99.90;;;;;;5051776;28;20217;-42
2022/04/05 08:35:05;;;;;;;2.90;0.80;;;6.80;99.90;;;;;;5059199;28;20651;-43
2022/04/05 08:37:32;;;;;;;9.80;2.03;;;6.80;99.90;;;;;;5061776;28;20230;-42
2022/04/05 08:40:00;;;;;;;5.57;0.93;;;6.80;99.90;;;;;;5058507;28;20207;-42
2022/04/05 08:42:26;;;;;;;5.87;0.97;;;6.90;99.90;;;;;;5055981;28;20205;-44
2022/04/05 08:44:54;;;;;;;4.77;0.80;;;6.90;99.90;;;;;;5064203;28;20190;-45
2022/04/05 08:47:24;;;;;;;3.00;0.87;;;6.80;99.90;;;;;;5045388;28;20229;-41
2022/04/05 08:49:52;;;;;;;6.47;0.83;;;6.30;99.90;;;;;;5064537;28;20215;-41
2022/04/05 08:52:18;;;;;;;1.63;0.50;;;5.80;99.90;;;;;;5060348;28;20198;-42
2022/04/05 08:54:45;;;;;;;2.23;0.43;;;5.60;99.90;;;;;;5059069;28;20202;-44
2022/04/05 08:57:12;;;;;;;5.17;0.83;;;5.50;99.90;;;;;;5054172;28;20229;-48
2022/04/05 08:59:39;;;;;;;1.97;0.60;;;5.50;99.90;;;;;;5064207;28;20203;-42
2022/04/05 09:02:06;;;;;;;5.10;1.10;;;5.60;99.90;;;;;;5050193;28;20250;-43
2022/04/05 09:04:34;;;;;;;2.30;0.80;;;5.70;99.90;;;;;;5058239;28;20206;-45
2022/04/05 09:07:20;;;;;;;4.50;0.70;;;5.70;99.90;;;;;;5059812;28;20614;-42
2022/04/05 09:10:06;;;;;;;2.97;0.80;;;5.90;99.90;;;;;;5058913;28;20583;-43
2022/04/05 09:12:39;;;;;;;2.67;0.63;;;6.10;99.90;;;;;;5051897;28;20210;-45
2022/04/05 09:15:10;;;;;;;7.10;0.93;;;6.30;99.90;;;;;;5062409;28;20209;-44
2022/04/05 09:17:41;;;;;;;3.93;0.83;;;6.40;99.90;;;;;;5045501;28;20226;-42
2022/04/05 09:20:09;;;;;;;3.40;0.80;;;6.40;99.90;;;;;;5057285;28;20671;-45
2022/04/05 09:22:37;;;;;;;3.77;1.00;;;6.50;99.90;;;;;;5062707;28;20198;-42
2022/04/05 09:25:05;;;;;;;1.90;0.77;;;6.70;99.90;;;;;;5054385;28;20256;-44
2022/04/05 09:27:44;;;;;;;6.47;0.93;;;6.70;99.90;;;;;;5056057;28;21150;-44
2022/04/05 09:30:13;;;;;;;3.23;0.80;;;6.90;99.90;;;;;;5058654;28;20229;-43
2022/04/05 09:32:42;;;;;;;4.70;0.83;;;6.90;99.90;;;;;;5063714;28;20245;-43
2022/04/05 09:35:10;;;;;;;5.53;1.03;;;6.90;99.90;;;;;;5045700;28;20655;-43
2022/04/05 09:37:39;;;;;;;3.60;0.97;;;7.00;99.90;;;;;;5062239;28;20210;-43
2022/04/05 09:40:24;;;;;;;2.27;0.90;;;7.10;99.90;;;;;;5056241;28;20211;-43
2022/04/05 09:43:02;;;;;;;3.13;0.63;;;7.20;99.90;;;;;;5051962;28;20199;-45
2022/04/05 09:45:46;;;;;;;2.10;0.90;;;7.20;99.90;;;;;;5064538;28;20938;-43
2022/04/05 09:48:14;;;;;;;6.27;1.10;;;7.20;99.90;;;;;;5058163;28;20225;-46
2022/04/05 09:51:01;;;;;;;3.33;0.60;;;7.30;99.90;;;;;;5053400;28;20218;-47
2022/04/05 09:53:40;;;;;;;6.63;0.63;;;7.40;99.90;;;;;;5058329;28;20225;-46
2022/04/05 09:56:10;;;;;;;4.10;0.83;;;7.40;99.90;;;;;;5050428;28;20790;-42
2022/04/05 09:58:42;;;;;;;2.90;1.00;;;7.50;99.90;;;;;;5056858;28;20598;-45
2022/04/05 10:01:11;;;;;;;4.63;1.43;;;7.60;99.90;;;;;;5058928;28;20207;-46
2022/04/05 10:03:39;;;;;;;5.20;1.13;;;7.60;99.90;;;;;;5062986;28;20671;-44
2022/04/05 10:06:06;;;;;;;4.47;1.10;;;7.70;99.90;;;;;;5043667;28;20211;-43
2022/04/05 10:08:36;;;;;;;4.10;0.80;;;7.70;99.90;;;;;;5060874;28;20577;-43
2022/04/05 10:11:03;;;;;;;6.20;0.90;;;7.70;99.90;;;;;;5061153;28;20548;-44
2022/04/05 10:13:30;;;;;;;2.70;0.80;;;7.60;99.90;;;;;;5057698;28;20194;-43
2022/04/05 10:15:58;;;;;;;5.93;1.00;;;7.50;99.90;;;;;;5051795;28;20195;-43
2022/04/05 10:18:32;;;;;;;4.40;0.87;;;7.40;99.90;;;;;;5059535;28;20278;-42
2022/04/05 10:20:59;;;;;;;6.70;1.00;;;7.20;99.90;;;;;;5050216;28;20213;-43
2022/04/05 10:23:26;;;;;;;7.50;1.23;;;7.20;99.90;;;;;;5060114;28;20205;-43
2022/04/05 10:25:54;;;;;;;3.67;1.07;;;7.10;99.90;;;;;;5056794;28;20191;-47
2022/04/05 10:28:24;;;;;;;4.33;0.70;;;7.10;99.90;;;;;;5053356;28;20225;-45
2022/04/05 10:31:02;;;;;;;4.63;0.73;;;7.00;99.90;;;;;;5055359;28;20225;-48
2022/04/05 10:33:40;;;;;;;4.73;0.70;;;6.90;99.90;;;;;;5057816;28;20721;-44
2022/04/05 10:36:08;;;;;;;3.47;0.87;;;6.80;99.90;;;;;;5045516;28;20218;-44
2022/04/05 10:38:36;;;;;;;6.23;1.03;;;6.70;99.90;;;;;;5059677;28;20204;-42
2022/04/05 10:41:14;;;;;;;4.67;1.13;;;6.70;99.90;;;;;;5059557;28;20195;-45
2022/04/05 10:43:42;;;;;;;6.70;1.10;;;6.70;99.90;;;;;;5056158;28;20209;-44
2022/04/05 10:46:09;;;;;;;3.33;0.90;;;6.80;99.90;;;;;;5043919;28;20965;-44
2022/04/05 10:48:37;;;;;;;6.23;1.17;;;6.90;99.90;;;;;;5061500;28;20277;-45
2022/04/05 10:51:30;;;;;;;3.23;0.80;;;6.90;99.90;;;;;;5037075;28;20207;-46
2022/04/05 10:54:19;;;;;;;6.60;1.30;;;6.90;99.90;;;;;;5056194;28;20213;-46
2022/04/05 10:57:20;;;;;;;2.87;1.27;;;7.00;99.90;;;;;;5058270;28;20315;-42
2022/04/05 10:59:50;;;;;;;4.80;1.07;;;7.10;99.90;;;;;;5048845;28;20221;-44
2022/04/05 11:02:31;;;;;;;2.10;0.93;;;7.10;99.90;;;;;;5058710;28;20298;-42
2022/04/05 11:05:02;;;;;;;1.00;0.60;;;7.10;99.90;;;;;;5057679;28;20230;-43
2022/04/05 11:07:50;;;;;;;1.40;0.80;;;7.20;99.90;;;;;;5048080;28;20226;-43
2022/04/05 11:10:19;;;;;;;3.37;0.77;;;7.10;99.90;;;;;;5054717;28;20209;-43
2022/04/05 11:12:46;;;;;;;3.17;0.90;;;7.10;99.90;;;;;;5060239;28;20552;-47
2022/04/05 11:15:16;;;;;;;5.60;0.90;;;7.20;99.90;;;;;;5055999;28;21044;-44
2022/04/05 11:17:43;;;;;;;2.10;0.67;;;7.20;99.90;;;;;;5060557;28;20210;-43
2022/04/05 11:20:13;;;;;;;4.63;0.87;;;7.10;99.90;;;;;;5058611;28;20198;-43
2022/04/05 11:22:39;;;;;;;3.17;1.00;;;7.00;99.90;;;;;;5044288;28;20210;-45
2022/04/05 11:25:08;;;;;;;5.83;0.77;;;7.00;99.90;;;;;;5057878;28;20223;-44
2022/04/05 11:27:38;;;;;;;3.80;0.90;;;7.10;99.90;;;;;;5060469;28;20228;-46
2022/04/05 11:30:44;;;;;;;7.37;1.37;;;7.30;99.90;;;;;;5046275;28;20992;-46
2022/04/05 11:33:45;;;;;;;2.70;0.80;;;7.30;99.90;;;;;;5053668;28;20491;-44
2022/04/05 11:36:13;;;;;;;4.97;1.27;;;7.40;99.90;;;;;;5057112;28;20282;-48
2022/04/05 11:38:42;;;;;;;2.73;0.70;;;7.40;99.90;;;;;;5047458;28;20675;-43
2022/04/05 11:41:11;;;;;;;3.83;1.10;;;7.40;99.90;;;;;;5058252;28;20901;-54
2022/04/05 11:43:41;;;;;;;3.37;1.20;;;7.30;99.90;;;;;;5061703;28;20202;-51
2022/04/05 11:46:12;;;;;;;3.73;0.80;;;7.30;99.90;;;;;;5051933;28;20199;-49
2022/04/05 11:48:42;;;;;;;6.27;0.77;;;7.40;99.90;;;;;;5060872;28;20214;-49
2022/04/05 11:51:11;;;;;;;2.70;0.97;;;7.30;99.90;;;;;;5058624;28;20218;-51
2022/04/05 11:53:39;;;;;;;2.10;0.70;;;7.40;99.90;;;;;;5043856;28;20437;-48
2022/04/05 11:56:11;;;;;;;3.63;0.93;;;7.50;99.90;;;;;;5056460;28;20195;-49
2022/04/05 11:58:41;;;;;;;1.90;1.30;;;7.50;99.90;;;;;;5058807;28;20209;-48
2022/04/05 12:01:11;;;;;;;1.57;0.80;;;7.30;99.90;;;;;;5049426;28;20923;-48
2022/04/05 12:03:42;;;;;;;4.27;0.77;;;7.30;99.90;;;;;;5064844;28;20202;-51
2022/04/05 12:06:09;;;;;;;4.83;1.40;;;7.20;99.90;;;;;;5060250;28;20198;-50
2022/04/05 12:08:36;;;;;;;2.07;0.90;;;7.10;99.90;;;;;;5051312;28;20216;-47
2022/04/05 12:11:04;;;;;;;2.50;0.53;;;7.00;99.90;;;;;;5060796;28;20737;-53
2022/04/05 12:13:34;;;;;;;3.23;0.80;;;6.90;99.90;;;;;;5063840;28;20564;-49
2022/04/05 12:16:02;;;;;;;2.40;0.90;;;6.80;99.90;;;;;;5054964;28;20729;-51
2022/04/05 12:18:30;;;;;;;2.20;0.50;;;6.70;99.90;;;;;;5064510;28;20229;-48
2022/04/05 12:20:59;;;;;;;3.13;0.77;;;6.70;99.90;;;;;;5059638;28;20194;-53
2022/04/05 12:23:32;;;;;;;3.37;1.13;;;6.70;99.90;;;;;;5052292;28;20218;-46
2022/04/05 12:26:10;;;;;;;4.43;0.80;;;6.70;99.90;;;;;;5058197;28;20194;-50
2022/04/05 12:28:40;;;;;;;1.57;0.50;;;6.70;99.90;;;;;;5065123;28;20191;-46
2022/04/05 12:31:15;;;;;;;3.10;0.60;;;6.70;99.90;;;;;;5046953;28;20214;-47
2022/04/05 12:33:54;;;;;;;3.20;0.70;;;6.80;99.90;;;;;;5047299;28;20214;-45
2022/04/05 12:36:22;;;;;;;2.03;0.83;;;6.90;99.90;;;;;;5056142;28;20578;-46
2022/04/05 12:38:50;;;;;;;2.83;1.00;;;6.90;99.90;;;;;;5045684;28;20202;-48
2022/04/05 12:41:18;;;;;;;3.50;0.90;;;7.00;99.90;;;;;;5058130;28;20226;-42
2022/04/05 12:43:46;;;;;;;1.57;0.80;;;7.10;99.90;;;;;;5057522;28;20203;-47
2022/04/05 12:46:15;;;;;;;3.77;0.60;;;7.20;99.90;;;;;;5062672;28;20230;-43
2022/04/05 12:48:43;;;;;;;2.33;0.63;;;7.20;99.90;;;;;;5054792;28;20214;-47
2022/04/05 12:51:10;;;;;;;3.13;0.60;;;7.20;99.90;;;;;;5055862;28;20265;-42
2022/04/05 12:53:38;;;;;;;3.17;0.70;;;7.20;99.90;;;;;;5054231;28;20198;-45
2022/04/05 12:56:09;;;;;;;5.67;0.90;;;7.10;99.90;;;;;;5050915;28;20293;-45
2022/04/05 12:58:38;;;;;;;2.00;0.70;;;7.00;99.90;;;;;;5061981;28;20195;-43
2022/04/05 13:01:18;;;;;;;1.63;0.90;;;6.90;99.90;;;;;;5052653;28;20218;-44
2022/04/05 13:03:47;;;;;;;1.33;0.70;;;6.90;99.90;;;;;;5048219;28;20206;-46
2022/04/05 13:06:25;;;;;;;4.07;0.90;;;6.90;99.90;;;;;;5061470;28;20199;-43